sensor_id;sensor_type;location;lat;lon;timestamp;P1;durP1;ratioP1;P2;durP2;ratioP2
36457;SDS011;22480;50.546;12.292;2022-12-18T00:01:34;16.80;;;10.27;;
36457;SDS011;22480;50.546;12.292;2022-12-18T00:04:02;19.93;;;10.23;;
36457;SDS011;22480;50.546;12.292;2022-12-18T00:06:30;20.20;;;9.87;;
36457;SDS011;22480;50.546;12.292;2022-12-18T00:08:56;16.77;;;8.83;;
36457;SDS011;22480;50.546;12.292;2022-12-18T00:11:23;18.60;;;9.43;;
36457;SDS011;22480;50.546;12.292;2022-12-18T00:13:51;23.03;;;10.63;;
36457;SDS011;22480;50.546;12.292;2022-12-18T00:16:20;19.10;;;10.90;;
36457;SDS011;22480;50.546;12.292;2022-12-18T00:18:47;17.80;;;9.90;;
36457;SDS011;22480;50.546;12.292;2022-12-18T00:21:14;25.17;;;10.63;;
36457;SDS011;22480;50.546;12.292;2022-12-18T00:23:41;20.13;;;10.73;;
36457;SDS011;22480;50.546;12.292;2022-12-18T00:29:09;17.43;;;11.30;;
36457;SDS011;22480;50.546;12.292;2022-12-18T00:31:36;22.97;;;12.20;;
36457;SDS011;22480;50.546;12.292;2022-12-18T00:34:03;26.60;;;11.97;;
36457;SDS011;22480;50.546;12.292;2022-12-18T00:36:30;20.30;;;11.10;;
36457;SDS011;22480;50.546;12.292;2022-12-18T00:38:59;17.80;;;10.07;;
36457;SDS011;22480;50.546;12.292;2022-12-18T00:41:26;18.97;;;9.53;;
36457;SDS011;22480;50.546;12.292;2022-12-18T00:44:13;21.57;;;10.37;;
36457;SDS011;22480;50.546;12.292;2022-12-18T00:46:40;15.97;;;10.53;;
36457;SDS011;22480;50.546;12.292;2022-12-18T00:49:07;14.50;;;8.10;;
36457;SDS011;22480;50.546;12.292;2022-12-18T00:51:34;19.40;;;8.97;;
36457;SDS011;22480;50.546;12.292;2022-12-18T00:54:00;16.83;;;8.23;;
36457;SDS011;22480;50.546;12.292;2022-12-18T00:56:26;15.03;;;8.33;;
36457;SDS011;22480;50.546;12.292;2022-12-18T00:58:52;13.77;;;7.20;;
36457;SDS011;22480;50.546;12.292;2022-12-18T01:01:17;12.60;;;6.83;;
36457;SDS011;22480;50.546;12.292;2022-12-18T01:03:43;13.90;;;7.83;;
36457;SDS011;22480;50.546;12.292;2022-12-18T01:06:12;15.10;;;7.63;;
36457;SDS011;22480;50.546;12.292;2022-12-18T01:08:40;15.63;;;8.37;;
36457;SDS011;22480;50.546;12.292;2022-12-18T01:11:09;11.63;;;7.33;;
36457;SDS011;22480;50.546;12.292;2022-12-18T01:13:37;13.77;;;7.70;;
36457;SDS011;22480;50.546;12.292;2022-12-18T01:16:03;10.40;;;6.93;;
36457;SDS011;22480;50.546;12.292;2022-12-18T01:18:29;12.00;;;7.50;;
36457;SDS011;22480;50.546;12.292;2022-12-18T01:20:57;12.83;;;7.20;;
36457;SDS011;22480;50.546;12.292;2022-12-18T01:23:23;14.47;;;8.00;;
36457;SDS011;22480;50.546;12.292;2022-12-18T01:25:49;12.43;;;7.27;;
36457;SDS011;22480;50.546;12.292;2022-12-18T01:28:15;9.60;;;6.07;;
36457;SDS011;22480;50.546;12.292;2022-12-18T01:30:40;13.27;;;8.43;;
36457;SDS011;22480;50.546;12.292;2022-12-18T01:33:06;10.73;;;7.07;;
36457;SDS011;22480;50.546;12.292;2022-12-18T01:35:39;13.60;;;9.07;;
36457;SDS011;22480;50.546;12.292;2022-12-18T01:38:08;13.33;;;6.87;;
36457;SDS011;22480;50.546;12.292;2022-12-18T01:40:34;11.60;;;7.40;;
36457;SDS011;22480;50.546;12.292;2022-12-18T01:43:00;15.70;;;6.50;;
36457;SDS011;22480;50.546;12.292;2022-12-18T01:45:30;11.93;;;7.10;;
36457;SDS011;22480;50.546;12.292;2022-12-18T01:48:04;11.00;;;7.27;;
36457;SDS011;22480;50.546;12.292;2022-12-18T01:50:36;11.17;;;6.40;;
36457;SDS011;22480;50.546;12.292;2022-12-18T01:55:37;6.60;;;4.53;;
36457;SDS011;22480;50.546;12.292;2022-12-18T01:58:08;6.77;;;4.30;;
36457;SDS011;22480;50.546;12.292;2022-12-18T02:00:34;8.97;;;4.27;;
36457;SDS011;22480;50.546;12.292;2022-12-18T02:03:00;9.73;;;4.60;;
36457;SDS011;22480;50.546;12.292;2022-12-18T02:05:41;9.47;;;4.57;;
36457;SDS011;22480;50.546;12.292;2022-12-18T02:08:16;9.77;;;4.20;;
36457;SDS011;22480;50.546;12.292;2022-12-18T02:13:41;6.20;;;4.13;;
36457;SDS011;22480;50.546;12.292;2022-12-18T02:18:47;6.67;;;3.70;;
36457;SDS011;22480;50.546;12.292;2022-12-18T02:24:28;7.40;;;3.40;;
36457;SDS011;22480;50.546;12.292;2022-12-18T02:27:04;6.80;;;3.40;;
36457;SDS011;22480;50.546;12.292;2022-12-18T02:29:34;8.80;;;3.45;;
36457;SDS011;22480;50.546;12.292;2022-12-18T02:32:25;10.10;;;4.33;;
36457;SDS011;22480;50.546;12.292;2022-12-18T02:34:54;9.20;;;3.60;;
36457;SDS011;22480;50.546;12.292;2022-12-18T02:37:24;6.80;;;3.53;;
36457;SDS011;22480;50.546;12.292;2022-12-18T02:39:52;5.17;;;3.57;;
36457;SDS011;22480;50.546;12.292;2022-12-18T02:42:20;7.10;;;3.57;;
36457;SDS011;22480;50.546;12.292;2022-12-18T02:44:48;5.70;;;3.33;;
36457;SDS011;22480;50.546;12.292;2022-12-18T02:47:20;6.47;;;3.40;;
36457;SDS011;22480;50.546;12.292;2022-12-18T02:49:55;6.57;;;4.07;;
36457;SDS011;22480;50.546;12.292;2022-12-18T02:55:26;6.13;;;3.73;;
36457;SDS011;22480;50.546;12.292;2022-12-18T02:58:43;7.00;;;3.23;;
36457;SDS011;22480;50.546;12.292;2022-12-18T03:01:05;8.50;;;4.17;;
36457;SDS011;22480;50.546;12.292;2022-12-18T03:08:53;4.80;;;3.37;;
36457;SDS011;22480;50.546;12.292;2022-12-18T03:11:24;7.20;;;3.80;;
36457;SDS011;22480;50.546;12.292;2022-12-18T03:14:12;10.50;;;4.87;;
36457;SDS011;22480;50.546;12.292;2022-12-18T03:16:42;3.95;;;2.78;;
36457;SDS011;22480;50.546;12.292;2022-12-18T03:19:11;3.87;;;2.73;;
36457;SDS011;22480;50.546;12.292;2022-12-18T03:21:49;4.77;;;3.20;;
36457;SDS011;22480;50.546;12.292;2022-12-18T03:24:19;5.10;;;2.83;;
36457;SDS011;22480;50.546;12.292;2022-12-18T03:26:50;2.90;;;2.57;;
36457;SDS011;22480;50.546;12.292;2022-12-18T03:32:00;4.07;;;3.07;;
36457;SDS011;22480;50.546;12.292;2022-12-18T03:34:32;3.90;;;2.70;;
36457;SDS011;22480;50.546;12.292;2022-12-18T03:37:04;4.37;;;2.33;;
36457;SDS011;22480;50.546;12.292;2022-12-18T03:39:31;4.00;;;2.80;;
36457;SDS011;22480;50.546;12.292;2022-12-18T03:44:45;3.30;;;2.10;;
36457;SDS011;22480;50.546;12.292;2022-12-18T03:47:23;3.53;;;2.33;;
36457;SDS011;22480;50.546;12.292;2022-12-18T03:50:07;3.43;;;2.13;;
36457;SDS011;22480;50.546;12.292;2022-12-18T03:52:49;4.23;;;2.40;;
36457;SDS011;22480;50.546;12.292;2022-12-18T03:55:47;4.83;;;2.20;;
36457;SDS011;22480;50.546;12.292;2022-12-18T03:58:15;4.60;;;2.10;;
36457;SDS011;22480;50.546;12.292;2022-12-18T04:00:55;3.63;;;2.58;;
36457;SDS011;22480;50.546;12.292;2022-12-18T04:03:25;3.57;;;2.20;;
36457;SDS011;22480;50.546;12.292;2022-12-18T04:05:55;3.33;;;2.43;;
36457;SDS011;22480;50.546;12.292;2022-12-18T04:08:22;3.67;;;2.20;;
36457;SDS011;22480;50.546;12.292;2022-12-18T04:11:00;3.70;;;2.43;;
36457;SDS011;22480;50.546;12.292;2022-12-18T04:13:28;3.00;;;2.10;;
36457;SDS011;22480;50.546;12.292;2022-12-18T04:15:59;2.87;;;2.00;;
36457;SDS011;22480;50.546;12.292;2022-12-18T04:18:26;5.20;;;3.20;;
36457;SDS011;22480;50.546;12.292;2022-12-18T04:20:52;4.40;;;2.70;;
36457;SDS011;22480;50.546;12.292;2022-12-18T04:23:19;2.37;;;2.13;;
36457;SDS011;22480;50.546;12.292;2022-12-18T04:25:46;3.40;;;2.50;;
36457;SDS011;22480;50.546;12.292;2022-12-18T04:28:18;3.50;;;1.90;;
36457;SDS011;22480;50.546;12.292;2022-12-18T04:30:44;7.17;;;2.50;;
36457;SDS011;22480;50.546;12.292;2022-12-18T04:33:13;3.03;;;2.83;;
36457;SDS011;22480;50.546;12.292;2022-12-18T04:35:39;6.33;;;3.20;;
36457;SDS011;22480;50.546;12.292;2022-12-18T04:38:06;3.90;;;2.30;;
36457;SDS011;22480;50.546;12.292;2022-12-18T04:40:37;5.87;;;2.70;;
36457;SDS011;22480;50.546;12.292;2022-12-18T04:43:10;4.40;;;3.00;;
36457;SDS011;22480;50.546;12.292;2022-12-18T04:45:35;3.93;;;3.03;;
36457;SDS011;22480;50.546;12.292;2022-12-18T04:48:02;2.83;;;2.03;;
36457;SDS011;22480;50.546;12.292;2022-12-18T04:50:28;4.93;;;1.90;;
36457;SDS011;22480;50.546;12.292;2022-12-18T04:52:56;3.93;;;1.93;;
36457;SDS011;22480;50.546;12.292;2022-12-18T04:55:22;3.87;;;2.67;;
36457;SDS011;22480;50.546;12.292;2022-12-18T04:57:48;4.37;;;2.10;;
36457;SDS011;22480;50.546;12.292;2022-12-18T05:00:14;3.90;;;2.50;;
36457;SDS011;22480;50.546;12.292;2022-12-18T05:02:40;6.63;;;2.20;;
36457;SDS011;22480;50.546;12.292;2022-12-18T05:05:05;3.23;;;2.30;;
36457;SDS011;22480;50.546;12.292;2022-12-18T05:07:31;2.00;;;1.80;;
36457;SDS011;22480;50.546;12.292;2022-12-18T05:09:57;2.10;;;1.90;;
36457;SDS011;22480;50.546;12.292;2022-12-18T05:12:23;4.07;;;2.57;;
36457;SDS011;22480;50.546;12.292;2022-12-18T05:14:49;2.77;;;2.27;;
36457;SDS011;22480;50.546;12.292;2022-12-18T05:17:15;3.40;;;2.30;;
36457;SDS011;22480;50.546;12.292;2022-12-18T05:19:40;4.33;;;2.57;;
36457;SDS011;22480;50.546;12.292;2022-12-18T05:22:06;3.00;;;1.83;;
36457;SDS011;22480;50.546;12.292;2022-12-18T05:24:32;3.10;;;2.13;;
36457;SDS011;22480;50.546;12.292;2022-12-18T05:26:58;5.53;;;3.63;;
36457;SDS011;22480;50.546;12.292;2022-12-18T05:29:23;5.63;;;3.40;;
36457;SDS011;22480;50.546;12.292;2022-12-18T05:31:49;4.03;;;2.53;;
36457;SDS011;22480;50.546;12.292;2022-12-18T05:34:15;4.10;;;2.43;;
36457;SDS011;22480;50.546;12.292;2022-12-18T05:36:41;4.70;;;2.57;;
36457;SDS011;22480;50.546;12.292;2022-12-18T05:39:07;5.17;;;2.90;;
36457;SDS011;22480;50.546;12.292;2022-12-18T05:41:33;2.90;;;1.97;;
36457;SDS011;22480;50.546;12.292;2022-12-18T05:43:58;3.97;;;2.30;;
36457;SDS011;22480;50.546;12.292;2022-12-18T05:46:24;4.40;;;2.33;;
36457;SDS011;22480;50.546;12.292;2022-12-18T05:48:50;2.30;;;2.10;;
36457;SDS011;22480;50.546;12.292;2022-12-18T05:51:17;5.07;;;2.57;;
36457;SDS011;22480;50.546;12.292;2022-12-18T05:53:44;2.27;;;2.00;;
36457;SDS011;22480;50.546;12.292;2022-12-18T05:56:12;5.27;;;2.80;;
36457;SDS011;22480;50.546;12.292;2022-12-18T05:58:40;7.03;;;3.90;;
36457;SDS011;22480;50.546;12.292;2022-12-18T06:01:07;8.13;;;3.70;;
36457;SDS011;22480;50.546;12.292;2022-12-18T06:03:38;6.30;;;3.93;;
36457;SDS011;22480;50.546;12.292;2022-12-18T06:06:11;10.77;;;4.30;;
36457;SDS011;22480;50.546;12.292;2022-12-18T06:08:48;12.13;;;4.67;;
36457;SDS011;22480;50.546;12.292;2022-12-18T06:11:18;6.73;;;4.37;;
36457;SDS011;22480;50.546;12.292;2022-12-18T06:13:45;7.80;;;4.23;;
36457;SDS011;22480;50.546;12.292;2022-12-18T06:16:14;11.17;;;6.17;;
36457;SDS011;22480;50.546;12.292;2022-12-18T06:18:40;9.37;;;5.63;;
36457;SDS011;22480;50.546;12.292;2022-12-18T06:21:05;14.30;;;5.63;;
36457;SDS011;22480;50.546;12.292;2022-12-18T06:23:31;9.70;;;4.90;;
36457;SDS011;22480;50.546;12.292;2022-12-18T06:25:57;7.33;;;4.80;;
36457;SDS011;22480;50.546;12.292;2022-12-18T06:28:23;8.13;;;5.40;;
36457;SDS011;22480;50.546;12.292;2022-12-18T06:30:49;10.53;;;5.03;;
36457;SDS011;22480;50.546;12.292;2022-12-18T06:33:15;7.93;;;4.37;;
36457;SDS011;22480;50.546;12.292;2022-12-18T06:35:41;9.80;;;4.80;;
36457;SDS011;22480;50.546;12.292;2022-12-18T06:38:07;10.83;;;6.20;;
36457;SDS011;22480;50.546;12.292;2022-12-18T06:40:33;14.93;;;6.47;;
36457;SDS011;22480;50.546;12.292;2022-12-18T06:42:59;17.13;;;6.60;;
36457;SDS011;22480;50.546;12.292;2022-12-18T06:45:25;8.83;;;6.13;;
36457;SDS011;22480;50.546;12.292;2022-12-18T06:47:50;14.83;;;5.90;;
36457;SDS011;22480;50.546;12.292;2022-12-18T06:50:16;12.20;;;6.33;;
36457;SDS011;22480;50.546;12.292;2022-12-18T06:52:42;7.67;;;4.87;;
36457;SDS011;22480;50.546;12.292;2022-12-18T06:55:09;8.57;;;4.17;;
36457;SDS011;22480;50.546;12.292;2022-12-18T06:57:35;11.07;;;5.03;;
36457;SDS011;22480;50.546;12.292;2022-12-18T07:00:03;10.80;;;5.13;;
36457;SDS011;22480;50.546;12.292;2022-12-18T07:02:30;10.53;;;5.10;;
36457;SDS011;22480;50.546;12.292;2022-12-18T07:04:56;12.17;;;5.20;;
36457;SDS011;22480;50.546;12.292;2022-12-18T07:07:22;8.57;;;5.23;;
36457;SDS011;22480;50.546;12.292;2022-12-18T07:09:51;10.33;;;5.60;;
36457;SDS011;22480;50.546;12.292;2022-12-18T07:12:17;8.93;;;4.72;;
36457;SDS011;22480;50.546;12.292;2022-12-18T07:14:43;9.93;;;5.23;;
36457;SDS011;22480;50.546;12.292;2022-12-18T07:17:09;11.33;;;6.27;;
36457;SDS011;22480;50.546;12.292;2022-12-18T07:19:34;10.50;;;5.87;;
36457;SDS011;22480;50.546;12.292;2022-12-18T07:22:00;10.87;;;6.40;;
36457;SDS011;22480;50.546;12.292;2022-12-18T07:24:26;10.90;;;5.77;;
36457;SDS011;22480;50.546;12.292;2022-12-18T07:26:52;9.23;;;4.87;;
36457;SDS011;22480;50.546;12.292;2022-12-18T07:29:18;11.00;;;5.47;;
36457;SDS011;22480;50.546;12.292;2022-12-18T07:31:44;14.53;;;7.83;;
36457;SDS011;22480;50.546;12.292;2022-12-18T07:34:11;12.93;;;7.43;;
36457;SDS011;22480;50.546;12.292;2022-12-18T07:36:37;11.80;;;6.80;;
36457;SDS011;22480;50.546;12.292;2022-12-18T07:39:03;12.37;;;5.67;;
36457;SDS011;22480;50.546;12.292;2022-12-18T07:41:29;9.20;;;5.20;;
36457;SDS011;22480;50.546;12.292;2022-12-18T07:43:55;13.00;;;6.80;;
36457;SDS011;22480;50.546;12.292;2022-12-18T07:46:20;12.03;;;6.27;;
36457;SDS011;22480;50.546;12.292;2022-12-18T07:48:46;12.33;;;6.93;;
36457;SDS011;22480;50.546;12.292;2022-12-18T07:51:12;16.40;;;7.90;;
36457;SDS011;22480;50.546;12.292;2022-12-18T07:53:38;14.20;;;7.90;;
36457;SDS011;22480;50.546;12.292;2022-12-18T07:56:06;15.93;;;8.27;;
36457;SDS011;22480;50.546;12.292;2022-12-18T07:58:34;14.68;;;8.55;;
36457;SDS011;22480;50.546;12.292;2022-12-18T08:01:04;13.13;;;6.53;;
36457;SDS011;22480;50.546;12.292;2022-12-18T08:03:31;18.30;;;7.30;;
36457;SDS011;22480;50.546;12.292;2022-12-18T08:06:01;11.27;;;6.13;;
36457;SDS011;22480;50.546;12.292;2022-12-18T08:08:28;16.77;;;8.07;;
36457;SDS011;22480;50.546;12.292;2022-12-18T08:10:54;15.23;;;6.73;;
36457;SDS011;22480;50.546;12.292;2022-12-18T08:13:21;17.57;;;7.17;;
36457;SDS011;22480;50.546;12.292;2022-12-18T08:15:54;17.30;;;9.80;;
36457;SDS011;22480;50.546;12.292;2022-12-18T08:18:22;27.47;;;11.37;;
36457;SDS011;22480;50.546;12.292;2022-12-18T08:20:47;17.87;;;10.40;;
36457;SDS011;22480;50.546;12.292;2022-12-18T08:23:13;17.33;;;9.10;;
36457;SDS011;22480;50.546;12.292;2022-12-18T08:25:39;18.53;;;9.13;;
36457;SDS011;22480;50.546;12.292;2022-12-18T08:28:05;20.47;;;9.53;;
36457;SDS011;22480;50.546;12.292;2022-12-18T08:30:30;16.50;;;8.57;;
36457;SDS011;22480;50.546;12.292;2022-12-18T08:32:56;14.80;;;8.00;;
36457;SDS011;22480;50.546;12.292;2022-12-18T08:35:23;16.13;;;8.23;;
36457;SDS011;22480;50.546;12.292;2022-12-18T08:37:48;16.13;;;7.13;;
36457;SDS011;22480;50.546;12.292;2022-12-18T08:40:15;22.03;;;10.17;;
36457;SDS011;22480;50.546;12.292;2022-12-18T08:42:41;38.17;;;14.97;;
36457;SDS011;22480;50.546;12.292;2022-12-18T08:45:25;30.30;;;12.53;;
36457;SDS011;22480;50.546;12.292;2022-12-18T08:47:51;26.30;;;12.00;;
36457;SDS011;22480;50.546;12.292;2022-12-18T08:50:17;23.37;;;10.23;;
36457;SDS011;22480;50.546;12.292;2022-12-18T08:52:43;19.13;;;9.27;;
36457;SDS011;22480;50.546;12.292;2022-12-18T08:55:09;22.13;;;9.80;;
36457;SDS011;22480;50.546;12.292;2022-12-18T08:57:35;22.83;;;10.10;;
36457;SDS011;22480;50.546;12.292;2022-12-18T09:00:01;23.73;;;10.53;;
36457;SDS011;22480;50.546;12.292;2022-12-18T09:02:27;30.03;;;13.23;;
36457;SDS011;22480;50.546;12.292;2022-12-18T09:04:53;37.03;;;17.80;;
36457;SDS011;22480;50.546;12.292;2022-12-18T09:07:19;34.63;;;17.10;;
36457;SDS011;22480;50.546;12.292;2022-12-18T09:09:44;25.70;;;12.17;;
36457;SDS011;22480;50.546;12.292;2022-12-18T09:12:10;24.23;;;12.30;;
36457;SDS011;22480;50.546;12.292;2022-12-18T09:14:36;23.93;;;14.40;;
36457;SDS011;22480;50.546;12.292;2022-12-18T09:17:02;26.10;;;14.80;;
36457;SDS011;22480;50.546;12.292;2022-12-18T09:19:28;17.60;;;11.27;;
36457;SDS011;22480;50.546;12.292;2022-12-18T09:21:53;16.13;;;9.87;;
36457;SDS011;22480;50.546;12.292;2022-12-18T09:24:22;21.57;;;11.23;;
36457;SDS011;22480;50.546;12.292;2022-12-18T09:26:48;14.03;;;8.07;;
36457;SDS011;22480;50.546;12.292;2022-12-18T09:29:17;14.68;;;8.48;;
36457;SDS011;22480;50.546;12.292;2022-12-18T09:31:43;16.00;;;9.67;;
36457;SDS011;22480;50.546;12.292;2022-12-18T09:34:09;14.47;;;9.07;;
36457;SDS011;22480;50.546;12.292;2022-12-18T09:36:35;17.47;;;9.73;;
36457;SDS011;22480;50.546;12.292;2022-12-18T09:39:01;21.63;;;11.80;;
36457;SDS011;22480;50.546;12.292;2022-12-18T09:44:02;14.63;;;8.83;;
36457;SDS011;22480;50.546;12.292;2022-12-18T09:46:37;13.67;;;8.83;;
36457;SDS011;22480;50.546;12.292;2022-12-18T09:49:06;16.07;;;10.03;;
36457;SDS011;22480;50.546;12.292;2022-12-18T09:51:39;16.70;;;10.13;;
36457;SDS011;22480;50.546;12.292;2022-12-18T09:54:13;20.07;;;10.73;;
36457;SDS011;22480;50.546;12.292;2022-12-18T09:56:45;16.27;;;9.10;;
36457;SDS011;22480;50.546;12.292;2022-12-18T09:59:18;18.53;;;9.43;;
36457;SDS011;22480;50.546;12.292;2022-12-18T10:01:54;19.13;;;10.43;;
36457;SDS011;22480;50.546;12.292;2022-12-18T10:04:21;15.70;;;9.53;;
36457;SDS011;22480;50.546;12.292;2022-12-18T10:14:29;21.27;;;10.60;;
36457;SDS011;22480;50.546;12.292;2022-12-18T10:17:14;21.27;;;11.57;;
36457;SDS011;22480;50.546;12.292;2022-12-18T10:19:56;18.83;;;11.13;;
36457;SDS011;22480;50.546;12.292;2022-12-18T10:27:48;23.17;;;12.33;;
36457;SDS011;22480;50.546;12.292;2022-12-18T10:32:45;26.50;;;13.33;;
36457;SDS011;22480;50.546;12.292;2022-12-18T10:35:15;21.03;;;11.37;;
36457;SDS011;22480;50.546;12.292;2022-12-18T10:38:03;17.80;;;9.90;;
36457;SDS011;22480;50.546;12.292;2022-12-18T10:40:31;17.83;;;9.10;;
36457;SDS011;22480;50.546;12.292;2022-12-18T10:43:05;18.80;;;9.80;;
36457;SDS011;22480;50.546;12.292;2022-12-18T10:45:36;19.67;;;13.00;;
36457;SDS011;22480;50.546;12.292;2022-12-18T10:48:02;17.77;;;10.80;;
36457;SDS011;22480;50.546;12.292;2022-12-18T10:50:30;18.10;;;8.53;;
36457;SDS011;22480;50.546;12.292;2022-12-18T10:52:59;17.73;;;9.75;;
36457;SDS011;22480;50.546;12.292;2022-12-18T10:55:28;17.47;;;9.47;;
36457;SDS011;22480;50.546;12.292;2022-12-18T10:58:13;19.80;;;10.90;;
36457;SDS011;22480;50.546;12.292;2022-12-18T11:03:43;28.77;;;14.37;;
36457;SDS011;22480;50.546;12.292;2022-12-18T11:08:36;28.40;;;13.87;;
36457;SDS011;22480;50.546;12.292;2022-12-18T11:11:02;29.70;;;16.10;;
36457;SDS011;22480;50.546;12.292;2022-12-18T11:13:32;23.60;;;14.07;;
36457;SDS011;22480;50.546;12.292;2022-12-18T11:15:58;24.53;;;14.30;;
36457;SDS011;22480;50.546;12.292;2022-12-18T11:21:06;15.70;;;8.63;;
36457;SDS011;22480;50.546;12.292;2022-12-18T11:23:34;12.57;;;7.43;;
36457;SDS011;22480;50.546;12.292;2022-12-18T11:26:02;11.60;;;6.83;;
36457;SDS011;22480;50.546;12.292;2022-12-18T11:28:38;10.85;;;6.60;;
36457;SDS011;22480;50.546;12.292;2022-12-18T11:31:22;10.13;;;6.87;;
36457;SDS011;22480;50.546;12.292;2022-12-18T11:33:59;9.82;;;5.60;;
36457;SDS011;22480;50.546;12.292;2022-12-18T11:36:31;11.13;;;6.10;;
36457;SDS011;22480;50.546;12.292;2022-12-18T11:39:04;8.18;;;5.07;;
36457;SDS011;22480;50.546;12.292;2022-12-18T11:41:42;10.32;;;6.03;;
36457;SDS011;22480;50.546;12.292;2022-12-18T11:47:22;15.15;;;8.48;;
36457;SDS011;22480;50.546;12.292;2022-12-18T11:49:50;11.23;;;7.05;;
36457;SDS011;22480;50.546;12.292;2022-12-18T11:52:22;12.68;;;6.95;;
36457;SDS011;22480;50.546;12.292;2022-12-18T11:54:55;12.45;;;7.32;;
36457;SDS011;22480;50.546;12.292;2022-12-18T11:57:36;19.05;;;12.02;;
36457;SDS011;22480;50.546;12.292;2022-12-18T12:00:15;25.45;;;13.40;;
36457;SDS011;22480;50.546;12.292;2022-12-18T12:08:12;15.15;;;9.50;;
36457;SDS011;22480;50.546;12.292;2022-12-18T12:13:23;13.52;;;8.55;;
36457;SDS011;22480;50.546;12.292;2022-12-18T12:16:21;7.55;;;5.43;;
36457;SDS011;22480;50.546;12.292;2022-12-18T12:18:56;8.85;;;5.53;;
36457;SDS011;22480;50.546;12.292;2022-12-18T12:21:41;5.45;;;3.95;;
36457;SDS011;22480;50.546;12.292;2022-12-18T12:30:09;7.53;;;3.60;;
36457;SDS011;22480;50.546;12.292;2022-12-18T12:38:23;3.85;;;2.78;;
36457;SDS011;22480;50.546;12.292;2022-12-18T12:40:58;4.82;;;3.60;;
36457;SDS011;22480;50.546;12.292;2022-12-18T12:43:35;7.38;;;3.70;;
36457;SDS011;22480;50.546;12.292;2022-12-18T12:46:05;7.40;;;3.75;;
36457;SDS011;22480;50.546;12.292;2022-12-18T12:51:34;4.65;;;3.00;;
36457;SDS011;22480;50.546;12.292;2022-12-18T12:54:03;4.47;;;2.70;;
36457;SDS011;22480;50.546;12.292;2022-12-18T13:04:31;4.75;;;2.65;;
36457;SDS011;22480;50.546;12.292;2022-12-18T13:07:19;6.88;;;4.55;;
36457;SDS011;22480;50.546;12.292;2022-12-18T13:12:36;4.65;;;2.10;;
36457;SDS011;22480;50.546;12.292;2022-12-18T13:15:21;6.78;;;2.17;;
36457;SDS011;22480;50.546;12.292;2022-12-18T13:18:30;3.88;;;2.40;;
36457;SDS011;22480;50.546;12.292;2022-12-18T13:25:51;2.90;;;2.00;;
36457;SDS011;22480;50.546;12.292;2022-12-18T13:30:48;4.75;;;2.35;;
36457;SDS011;22480;50.546;12.292;2022-12-18T13:40:57;3.13;;;2.30;;
36457;SDS011;22480;50.546;12.292;2022-12-18T13:43:27;4.55;;;2.00;;
36457;SDS011;22480;50.546;12.292;2022-12-18T13:46:05;3.80;;;2.30;;
36457;SDS011;22480;50.546;12.292;2022-12-18T13:48:55;4.03;;;2.35;;
36457;SDS011;22480;50.546;12.292;2022-12-18T13:51:21;3.92;;;2.58;;
36457;SDS011;22480;50.546;12.292;2022-12-18T13:53:58;4.83;;;2.53;;
36457;SDS011;22480;50.546;12.292;2022-12-18T13:56:28;3.47;;;2.50;;
36457;SDS011;22480;50.546;12.292;2022-12-18T14:04:35;5.97;;;2.80;;
36457;SDS011;22480;50.546;12.292;2022-12-18T14:07:04;4.73;;;2.83;;
36457;SDS011;22480;50.546;12.292;2022-12-18T14:09:48;6.67;;;3.07;;
36457;SDS011;22480;50.546;12.292;2022-12-18T14:12:27;6.87;;;3.50;;
36457;SDS011;22480;50.546;12.292;2022-12-18T14:17:49;9.57;;;4.47;;
36457;SDS011;22480;50.546;12.292;2022-12-18T14:20:15;5.73;;;3.70;;
36457;SDS011;22480;50.546;12.292;2022-12-18T14:22:46;7.43;;;4.70;;
36457;SDS011;22480;50.546;12.292;2022-12-18T14:27:43;9.67;;;4.40;;
36457;SDS011;22480;50.546;12.292;2022-12-18T14:30:32;8.73;;;4.23;;
36457;SDS011;22480;50.546;12.292;2022-12-18T14:33:19;7.87;;;4.30;;
36457;SDS011;22480;50.546;12.292;2022-12-18T14:35:57;10.20;;;4.65;;
36457;SDS011;22480;50.546;12.292;2022-12-18T14:38:31;6.03;;;3.53;;
36457;SDS011;22480;50.546;12.292;2022-12-18T14:45:59;7.03;;;3.17;;
36457;SDS011;22480;50.546;12.292;2022-12-18T14:48:39;8.13;;;3.80;;
36457;SDS011;22480;50.546;12.292;2022-12-18T14:51:14;5.63;;;3.00;;
36457;SDS011;22480;50.546;12.292;2022-12-18T14:53:43;6.53;;;3.90;;
36457;SDS011;22480;50.546;12.292;2022-12-18T14:56:29;6.70;;;3.87;;
36457;SDS011;22480;50.546;12.292;2022-12-18T14:58:59;27.83;;;10.87;;
36457;SDS011;22480;50.546;12.292;2022-12-18T15:01:45;14.15;;;7.25;;
36457;SDS011;22480;50.546;12.292;2022-12-18T15:23:19;10.27;;;4.67;;
36457;SDS011;22480;50.546;12.292;2022-12-18T15:25:56;18.17;;;8.03;;
36457;SDS011;22480;50.546;12.292;2022-12-18T15:28:24;20.03;;;8.37;;
36457;SDS011;22480;50.546;12.292;2022-12-18T15:30:58;13.00;;;6.57;;
36457;SDS011;22480;50.546;12.292;2022-12-18T15:36:15;13.13;;;8.03;;
36457;SDS011;22480;50.546;12.292;2022-12-18T15:38:43;13.27;;;6.27;;
36457;SDS011;22480;50.546;12.292;2022-12-18T15:41:15;9.43;;;5.53;;
36457;SDS011;22480;50.546;12.292;2022-12-18T15:43:43;12.80;;;6.77;;
36457;SDS011;22480;50.546;12.292;2022-12-18T15:46:15;14.77;;;6.97;;
36457;SDS011;22480;50.546;12.292;2022-12-18T15:48:43;11.00;;;6.77;;
36457;SDS011;22480;50.546;12.292;2022-12-18T15:53:43;17.03;;;8.97;;
36457;SDS011;22480;50.546;12.292;2022-12-18T15:56:10;10.93;;;5.50;;
36457;SDS011;22480;50.546;12.292;2022-12-18T15:58:56;27.53;;;13.67;;
36457;SDS011;22480;50.546;12.292;2022-12-18T16:01:29;25.70;;;12.93;;
36457;SDS011;22480;50.546;12.292;2022-12-18T16:03:58;23.77;;;11.03;;
36457;SDS011;22480;50.546;12.292;2022-12-18T16:06:24;18.37;;;10.10;;
36457;SDS011;22480;50.546;12.292;2022-12-18T16:08:50;16.77;;;9.93;;
36457;SDS011;22480;50.546;12.292;2022-12-18T16:16:44;14.33;;;7.73;;
36457;SDS011;22480;50.546;12.292;2022-12-18T16:19:10;9.57;;;5.57;;
36457;SDS011;22480;50.546;12.292;2022-12-18T16:21:37;10.33;;;4.80;;
36457;SDS011;22480;50.546;12.292;2022-12-18T16:24:03;7.13;;;4.40;;
36457;SDS011;22480;50.546;12.292;2022-12-18T16:26:29;6.07;;;3.30;;
36457;SDS011;22480;50.546;12.292;2022-12-18T16:28:55;7.27;;;3.63;;
36457;SDS011;22480;50.546;12.292;2022-12-18T16:31:21;8.80;;;4.60;;
36457;SDS011;22480;50.546;12.292;2022-12-18T16:33:46;6.83;;;4.20;;
36457;SDS011;22480;50.546;12.292;2022-12-18T16:36:12;7.63;;;4.30;;
36457;SDS011;22480;50.546;12.292;2022-12-18T16:38:38;9.30;;;4.70;;
36457;SDS011;22480;50.546;12.292;2022-12-18T16:41:15;10.80;;;5.87;;
36457;SDS011;22480;50.546;12.292;2022-12-18T16:43:56;10.33;;;5.40;;
36457;SDS011;22480;50.546;12.292;2022-12-18T16:46:22;8.97;;;4.30;;
36457;SDS011;22480;50.546;12.292;2022-12-18T16:48:48;9.20;;;4.87;;
36457;SDS011;22480;50.546;12.292;2022-12-18T16:51:14;9.40;;;5.10;;
36457;SDS011;22480;50.546;12.292;2022-12-18T16:53:39;14.00;;;4.93;;
36457;SDS011;22480;50.546;12.292;2022-12-18T16:56:05;7.83;;;4.43;;
36457;SDS011;22480;50.546;12.292;2022-12-18T16:58:31;9.03;;;4.90;;
36457;SDS011;22480;50.546;12.292;2022-12-18T17:00:58;10.80;;;4.93;;
36457;SDS011;22480;50.546;12.292;2022-12-18T17:03:24;7.90;;;4.37;;
36457;SDS011;22480;50.546;12.292;2022-12-18T17:05:49;7.80;;;5.57;;
36457;SDS011;22480;50.546;12.292;2022-12-18T17:08:15;9.03;;;5.70;;
36457;SDS011;22480;50.546;12.292;2022-12-18T17:10:41;26.97;;;11.17;;
36457;SDS011;22480;50.546;12.292;2022-12-18T17:13:06;7.07;;;4.53;;